sensor_id;sensor_type;location;lat;lon;timestamp;P1;durP1;ratioP1;P2;durP2;ratioP2
45476;SDS011;31958;51.756;-2.556;2022-12-07T00:02:11;18.02;;;5.13;;
45476;SDS011;31958;51.756;-2.556;2022-12-07T00:04:36;11.32;;;5.28;;
45476;SDS011;31958;51.756;-2.556;2022-12-07T00:07:02;11.32;;;4.50;;
45476;SDS011;31958;51.756;-2.556;2022-12-07T00:09:27;9.07;;;4.72;;
45476;SDS011;31958;51.756;-2.556;2022-12-07T00:11:53;11.52;;;4.82;;
45476;SDS011;31958;51.756;-2.556;2022-12-07T00:14:18;11.93;;;4.82;;
45476;SDS011;31958;51.756;-2.556;2022-12-07T00:16:45;20.20;;;5.18;;
45476;SDS011;31958;51.756;-2.556;2022-12-07T00:19:11;12.02;;;4.65;;
45476;SDS011;31958;51.756;-2.556;2022-12-07T00:21:38;9.18;;;4.43;;
45476;SDS011;31958;51.756;-2.556;2022-12-07T00:24:04;19.65;;;4.32;;
45476;SDS011;31958;51.756;-2.556;2022-12-07T00:26:30;12.25;;;4.05;;
45476;SDS011;31958;51.756;-2.556;2022-12-07T00:28:58;15.63;;;4.82;;
45476;SDS011;31958;51.756;-2.556;2022-12-07T00:31:27;11.98;;;4.53;;
45476;SDS011;31958;51.756;-2.556;2022-12-07T00:33:55;15.30;;;4.43;;
45476;SDS011;31958;51.756;-2.556;2022-12-07T00:36:21;12.45;;;4.25;;
45476;SDS011;31958;51.756;-2.556;2022-12-07T00:38:48;10.57;;;4.72;;
45476;SDS011;31958;51.756;-2.556;2022-12-07T00:41:17;11.18;;;4.10;;
45476;SDS011;31958;51.756;-2.556;2022-12-07T00:43:44;8.35;;;4.10;;
45476;SDS011;31958;51.756;-2.556;2022-12-07T00:46:10;20.38;;;5.00;;
45476;SDS011;31958;51.756;-2.556;2022-12-07T00:48:36;8.57;;;3.67;;
45476;SDS011;31958;51.756;-2.556;2022-12-07T00:51:02;12.45;;;4.38;;
45476;SDS011;31958;51.756;-2.556;2022-12-07T00:53:28;10.02;;;4.05;;
45476;SDS011;31958;51.756;-2.556;2022-12-07T00:55:54;7.65;;;3.70;;
45476;SDS011;31958;51.756;-2.556;2022-12-07T00:58:20;13.00;;;3.88;;
45476;SDS011;31958;51.756;-2.556;2022-12-07T01:00:46;9.52;;;3.95;;
45476;SDS011;31958;51.756;-2.556;2022-12-07T01:03:12;13.48;;;4.65;;
45476;SDS011;31958;51.756;-2.556;2022-12-07T01:05:39;13.32;;;4.45;;
45476;SDS011;31958;51.756;-2.556;2022-12-07T01:08:05;15.23;;;4.68;;
45476;SDS011;31958;51.756;-2.556;2022-12-07T01:10:31;13.10;;;3.90;;
45476;SDS011;31958;51.756;-2.556;2022-12-07T01:12:56;6.53;;;3.67;;
45476;SDS011;31958;51.756;-2.556;2022-12-07T01:15:22;17.73;;;4.60;;
45476;SDS011;31958;51.756;-2.556;2022-12-07T01:17:48;11.00;;;4.97;;
45476;SDS011;31958;51.756;-2.556;2022-12-07T01:20:13;17.13;;;4.13;;
45476;SDS011;31958;51.756;-2.556;2022-12-07T01:22:40;7.25;;;3.85;;
45476;SDS011;31958;51.756;-2.556;2022-12-07T01:25:07;14.25;;;3.65;;
45476;SDS011;31958;51.756;-2.556;2022-12-07T01:27:33;18.65;;;4.43;;
45476;SDS011;31958;51.756;-2.556;2022-12-07T01:29:59;12.13;;;4.68;;
45476;SDS011;31958;51.756;-2.556;2022-12-07T01:32:25;17.30;;;3.75;;
45476;SDS011;31958;51.756;-2.556;2022-12-07T01:34:51;9.10;;;3.97;;
45476;SDS011;31958;51.756;-2.556;2022-12-07T01:37:16;8.57;;;3.95;;
45476;SDS011;31958;51.756;-2.556;2022-12-07T01:39:42;6.55;;;3.60;;
45476;SDS011;31958;51.756;-2.556;2022-12-07T01:42:10;12.45;;;4.43;;
45476;SDS011;31958;51.756;-2.556;2022-12-07T01:47:40;11.38;;;4.85;;
45476;SDS011;31958;51.756;-2.556;2022-12-07T01:50:06;14.52;;;4.20;;
45476;SDS011;31958;51.756;-2.556;2022-12-07T01:52:32;7.65;;;3.78;;
45476;SDS011;31958;51.756;-2.556;2022-12-07T01:54:59;7.80;;;3.83;;
45476;SDS011;31958;51.756;-2.556;2022-12-07T01:57:27;13.68;;;3.90;;
45476;SDS011;31958;51.756;-2.556;2022-12-07T01:59:53;15.73;;;4.10;;
45476;SDS011;31958;51.756;-2.556;2022-12-07T02:02:24;10.25;;;4.10;;
45476;SDS011;31958;51.756;-2.556;2022-12-07T02:04:52;9.07;;;4.00;;
45476;SDS011;31958;51.756;-2.556;2022-12-07T02:07:18;15.60;;;4.57;;
45476;SDS011;31958;51.756;-2.556;2022-12-07T02:09:45;11.40;;;4.43;;
45476;SDS011;31958;51.756;-2.556;2022-12-07T02:12:10;13.80;;;4.78;;
45476;SDS011;31958;51.756;-2.556;2022-12-07T02:14:36;7.45;;;4.35;;
45476;SDS011;31958;51.756;-2.556;2022-12-07T02:25:23;14.95;;;4.68;;
45476;SDS011;31958;51.756;-2.556;2022-12-07T02:31:33;11.98;;;4.00;;
45476;SDS011;31958;51.756;-2.556;2022-12-07T02:34:07;14.13;;;4.35;;
45476;SDS011;31958;51.756;-2.556;2022-12-07T02:36:39;10.77;;;3.90;;
45476;SDS011;31958;51.756;-2.556;2022-12-07T02:39:17;14.07;;;4.10;;
45476;SDS011;31958;51.756;-2.556;2022-12-07T02:41:52;16.98;;;4.40;;
45476;SDS011;31958;51.756;-2.556;2022-12-07T02:44:22;26.48;;;4.95;;
45476;SDS011;31958;51.756;-2.556;2022-12-07T02:46:51;15.63;;;4.45;;
45476;SDS011;31958;51.756;-2.556;2022-12-07T02:49:19;8.48;;;4.20;;
45476;SDS011;31958;51.756;-2.556;2022-12-07T02:51:47;8.13;;;3.65;;
45476;SDS011;31958;51.756;-2.556;2022-12-07T02:54:16;14.60;;;4.03;;
45476;SDS011;31958;51.756;-2.556;2022-12-07T03:07:00;10.73;;;3.92;;
45476;SDS011;31958;51.756;-2.556;2022-12-07T03:12:18;8.30;;;3.00;;
45476;SDS011;31958;51.756;-2.556;2022-12-07T03:14:55;14.57;;;3.33;;
45476;SDS011;31958;51.756;-2.556;2022-12-07T03:17:28;6.47;;;3.10;;
45476;SDS011;31958;51.756;-2.556;2022-12-07T03:19:57;9.75;;;3.97;;
45476;SDS011;31958;51.756;-2.556;2022-12-07T03:22:24;8.85;;;4.10;;
45476;SDS011;31958;51.756;-2.556;2022-12-07T03:24:55;15.23;;;3.72;;
45476;SDS011;31958;51.756;-2.556;2022-12-07T03:27:33;6.10;;;3.20;;
45476;SDS011;31958;51.756;-2.556;2022-12-07T03:30:08;9.40;;;3.28;;
45476;SDS011;31958;51.756;-2.556;2022-12-07T03:37:45;10.38;;;3.20;;
45476;SDS011;31958;51.756;-2.556;2022-12-07T03:40:23;8.30;;;3.22;;
45476;SDS011;31958;51.756;-2.556;2022-12-07T03:42:53;6.10;;;3.20;;
45476;SDS011;31958;51.756;-2.556;2022-12-07T03:45:20;11.15;;;3.65;;
45476;SDS011;31958;51.756;-2.556;2022-12-07T03:47:53;12.48;;;2.75;;
45476;SDS011;31958;51.756;-2.556;2022-12-07T03:50:48;8.40;;;3.53;;
45476;SDS011;31958;51.756;-2.556;2022-12-07T03:55:39;10.57;;;2.85;;
45476;SDS011;31958;51.756;-2.556;2022-12-07T03:58:11;13.52;;;4.50;;
45476;SDS011;31958;51.756;-2.556;2022-12-07T04:00:38;9.98;;;4.15;;
45476;SDS011;31958;51.756;-2.556;2022-12-07T04:03:05;15.38;;;4.07;;
45476;SDS011;31958;51.756;-2.556;2022-12-07T04:05:31;12.45;;;3.58;;
45476;SDS011;31958;51.756;-2.556;2022-12-07T04:07:56;11.30;;;3.72;;
45476;SDS011;31958;51.756;-2.556;2022-12-07T04:10:22;13.27;;;4.00;;
45476;SDS011;31958;51.756;-2.556;2022-12-07T04:12:47;12.27;;;4.03;;
45476;SDS011;31958;51.756;-2.556;2022-12-07T04:15:12;12.55;;;3.63;;
45476;SDS011;31958;51.756;-2.556;2022-12-07T04:17:38;15.15;;;4.80;;
45476;SDS011;31958;51.756;-2.556;2022-12-07T04:20:04;16.02;;;4.32;;
45476;SDS011;31958;51.756;-2.556;2022-12-07T04:22:30;15.10;;;4.43;;
45476;SDS011;31958;51.756;-2.556;2022-12-07T04:24:55;12.30;;;4.72;;
45476;SDS011;31958;51.756;-2.556;2022-12-07T04:27:21;13.25;;;4.68;;
45476;SDS011;31958;51.756;-2.556;2022-12-07T04:29:46;12.60;;;4.22;;
45476;SDS011;31958;51.756;-2.556;2022-12-07T04:32:12;15.18;;;5.03;;
45476;SDS011;31958;51.756;-2.556;2022-12-07T04:34:37;19.70;;;4.60;;
45476;SDS011;31958;51.756;-2.556;2022-12-07T04:37:02;11.65;;;4.93;;
45476;SDS011;31958;51.756;-2.556;2022-12-07T04:39:29;18.15;;;4.25;;
45476;SDS011;31958;51.756;-2.556;2022-12-07T04:41:57;15.75;;;4.90;;
45476;SDS011;31958;51.756;-2.556;2022-12-07T04:44:23;14.13;;;3.97;;
45476;SDS011;31958;51.756;-2.556;2022-12-07T04:46:49;15.55;;;4.68;;
45476;SDS011;31958;51.756;-2.556;2022-12-07T04:49:15;11.77;;;4.15;;
45476;SDS011;31958;51.756;-2.556;2022-12-07T04:51:41;12.55;;;4.88;;
45476;SDS011;31958;51.756;-2.556;2022-12-07T04:54:07;16.42;;;4.55;;
45476;SDS011;31958;51.756;-2.556;2022-12-07T04:56:32;19.55;;;5.20;;
45476;SDS011;31958;51.756;-2.556;2022-12-07T04:59:00;15.68;;;3.97;;
45476;SDS011;31958;51.756;-2.556;2022-12-07T05:01:25;13.57;;;3.40;;
45476;SDS011;31958;51.756;-2.556;2022-12-07T05:03:51;14.70;;;3.97;;
45476;SDS011;31958;51.756;-2.556;2022-12-07T05:06:16;9.10;;;3.35;;
45476;SDS011;31958;51.756;-2.556;2022-12-07T05:08:42;14.55;;;3.58;;
45476;SDS011;31958;51.756;-2.556;2022-12-07T05:11:08;9.48;;;3.38;;
45476;SDS011;31958;51.756;-2.556;2022-12-07T05:13:34;7.40;;;3.38;;
45476;SDS011;31958;51.756;-2.556;2022-12-07T05:16:00;12.45;;;3.80;;
45476;SDS011;31958;51.756;-2.556;2022-12-07T05:18:25;6.60;;;3.10;;
45476;SDS011;31958;51.756;-2.556;2022-12-07T05:20:51;6.63;;;3.40;;
45476;SDS011;31958;51.756;-2.556;2022-12-07T05:23:17;11.48;;;3.63;;
45476;SDS011;31958;51.756;-2.556;2022-12-07T05:25:43;8.23;;;4.20;;
45476;SDS011;31958;51.756;-2.556;2022-12-07T05:28:08;10.15;;;4.32;;
45476;SDS011;31958;51.756;-2.556;2022-12-07T05:30:34;8.98;;;4.00;;
45476;SDS011;31958;51.756;-2.556;2022-12-07T05:32:59;15.00;;;4.15;;
45476;SDS011;31958;51.756;-2.556;2022-12-07T05:35:25;16.70;;;4.32;;
45476;SDS011;31958;51.756;-2.556;2022-12-07T05:37:50;9.82;;;3.95;;
45476;SDS011;31958;51.756;-2.556;2022-12-07T05:40:16;6.78;;;3.78;;
45476;SDS011;31958;51.756;-2.556;2022-12-07T05:42:42;6.32;;;3.22;;
45476;SDS011;31958;51.756;-2.556;2022-12-07T05:45:08;8.43;;;3.50;;
45476;SDS011;31958;51.756;-2.556;2022-12-07T05:47:34;10.90;;;3.13;;
45476;SDS011;31958;51.756;-2.556;2022-12-07T05:50:00;10.00;;;4.25;;
45476;SDS011;31958;51.756;-2.556;2022-12-07T05:52:25;9.55;;;3.10;;
45476;SDS011;31958;51.756;-2.556;2022-12-07T05:54:51;14.50;;;3.88;;
45476;SDS011;31958;51.756;-2.556;2022-12-07T05:57:16;13.20;;;4.25;;
45476;SDS011;31958;51.756;-2.556;2022-12-07T05:59:42;13.00;;;3.92;;
45476;SDS011;31958;51.756;-2.556;2022-12-07T06:02:08;12.18;;;4.03;;
45476;SDS011;31958;51.756;-2.556;2022-12-07T06:04:36;12.63;;;4.63;;
45476;SDS011;31958;51.756;-2.556;2022-12-07T06:07:04;18.58;;;4.55;;
45476;SDS011;31958;51.756;-2.556;2022-12-07T06:09:30;7.40;;;3.75;;
45476;SDS011;31958;51.756;-2.556;2022-12-07T06:11:56;14.40;;;3.70;;
45476;SDS011;31958;51.756;-2.556;2022-12-07T06:14:40;10.43;;;4.53;;
45476;SDS011;31958;51.756;-2.556;2022-12-07T06:17:06;12.40;;;3.63;;
45476;SDS011;31958;51.756;-2.556;2022-12-07T06:19:31;13.52;;;3.78;;
45476;SDS011;31958;51.756;-2.556;2022-12-07T06:21:57;9.88;;;3.92;;
45476;SDS011;31958;51.756;-2.556;2022-12-07T06:24:22;14.05;;;4.20;;
45476;SDS011;31958;51.756;-2.556;2022-12-07T06:26:48;9.98;;;3.97;;
45476;SDS011;31958;51.756;-2.556;2022-12-07T06:29:14;14.10;;;5.05;;
45476;SDS011;31958;51.756;-2.556;2022-12-07T06:31:39;18.88;;;4.10;;
45476;SDS011;31958;51.756;-2.556;2022-12-07T06:34:06;10.93;;;3.65;;
45476;SDS011;31958;51.756;-2.556;2022-12-07T06:36:34;15.15;;;4.13;;
45476;SDS011;31958;51.756;-2.556;2022-12-07T06:38:59;11.00;;;3.90;;
45476;SDS011;31958;51.756;-2.556;2022-12-07T06:41:25;10.40;;;4.70;;
45476;SDS011;31958;51.756;-2.556;2022-12-07T06:43:50;17.45;;;4.07;;
45476;SDS011;31958;51.756;-2.556;2022-12-07T06:46:16;9.10;;;4.40;;
45476;SDS011;31958;51.756;-2.556;2022-12-07T06:48:42;11.38;;;3.72;;
45476;SDS011;31958;51.756;-2.556;2022-12-07T06:51:08;12.23;;;3.65;;
45476;SDS011;31958;51.756;-2.556;2022-12-07T06:53:34;15.43;;;4.72;;
45476;SDS011;31958;51.756;-2.556;2022-12-07T06:55:59;6.18;;;3.90;;
45476;SDS011;31958;51.756;-2.556;2022-12-07T06:58:25;11.25;;;4.22;;
45476;SDS011;31958;51.756;-2.556;2022-12-07T07:00:50;13.60;;;4.25;;
45476;SDS011;31958;51.756;-2.556;2022-12-07T07:03:16;11.88;;;4.60;;
45476;SDS011;31958;51.756;-2.556;2022-12-07T07:05:42;13.32;;;4.18;;
45476;SDS011;31958;51.756;-2.556;2022-12-07T07:08:08;9.18;;;3.83;;
45476;SDS011;31958;51.756;-2.556;2022-12-07T07:10:33;9.88;;;4.75;;
45476;SDS011;31958;51.756;-2.556;2022-12-07T07:12:59;5.18;;;2.88;;
45476;SDS011;31958;51.756;-2.556;2022-12-07T07:15:24;10.43;;;4.07;;
45476;SDS011;31958;51.756;-2.556;2022-12-07T07:17:50;7.43;;;3.13;;
45476;SDS011;31958;51.756;-2.556;2022-12-07T07:20:15;12.13;;;4.50;;
45476;SDS011;31958;51.756;-2.556;2022-12-07T07:22:41;15.90;;;3.88;;
45476;SDS011;31958;51.756;-2.556;2022-12-07T07:25:06;5.60;;;3.70;;
45476;SDS011;31958;51.756;-2.556;2022-12-07T07:27:32;7.00;;;3.47;;
45476;SDS011;31958;51.756;-2.556;2022-12-07T07:29:57;12.48;;;3.00;;
45476;SDS011;31958;51.756;-2.556;2022-12-07T07:32:22;9.65;;;3.55;;
45476;SDS011;31958;51.756;-2.556;2022-12-07T07:34:48;10.50;;;4.50;;
45476;SDS011;31958;51.756;-2.556;2022-12-07T07:37:13;6.90;;;3.65;;
45476;SDS011;31958;51.756;-2.556;2022-12-07T07:39:39;10.70;;;3.47;;
45476;SDS011;31958;51.756;-2.556;2022-12-07T07:42:04;12.98;;;3.15;;
45476;SDS011;31958;51.756;-2.556;2022-12-07T07:44:30;8.93;;;3.10;;
45476;SDS011;31958;51.756;-2.556;2022-12-07T07:46:55;9.43;;;3.78;;
45476;SDS011;31958;51.756;-2.556;2022-12-07T07:49:21;5.38;;;3.08;;
45476;SDS011;31958;51.756;-2.556;2022-12-07T07:51:46;7.43;;;3.13;;
45476;SDS011;31958;51.756;-2.556;2022-12-07T07:54:13;8.43;;;3.35;;
45476;SDS011;31958;51.756;-2.556;2022-12-07T07:56:38;16.13;;;3.60;;
45476;SDS011;31958;51.756;-2.556;2022-12-07T07:59:03;10.98;;;4.40;;
45476;SDS011;31958;51.756;-2.556;2022-12-07T08:01:29;7.45;;;3.78;;
45476;SDS011;31958;51.756;-2.556;2022-12-07T08:03:54;12.25;;;4.20;;
45476;SDS011;31958;51.756;-2.556;2022-12-07T08:06:20;13.25;;;4.45;;
45476;SDS011;31958;51.756;-2.556;2022-12-07T08:08:45;11.15;;;3.70;;
45476;SDS011;31958;51.756;-2.556;2022-12-07T08:11:10;9.60;;;4.47;;
45476;SDS011;31958;51.756;-2.556;2022-12-07T08:13:36;13.20;;;4.15;;
45476;SDS011;31958;51.756;-2.556;2022-12-07T08:16:06;20.20;;;4.68;;
45476;SDS011;31958;51.756;-2.556;2022-12-07T08:21:02;5.80;;;3.42;;
45476;SDS011;31958;51.756;-2.556;2022-12-07T08:23:28;11.55;;;3.80;;
45476;SDS011;31958;51.756;-2.556;2022-12-07T08:25:54;9.23;;;4.03;;
45476;SDS011;31958;51.756;-2.556;2022-12-07T08:28:20;10.80;;;3.60;;
45476;SDS011;31958;51.756;-2.556;2022-12-07T08:30:45;9.73;;;3.53;;
45476;SDS011;31958;51.756;-2.556;2022-12-07T08:33:11;5.88;;;3.65;;
45476;SDS011;31958;51.756;-2.556;2022-12-07T08:35:36;11.75;;;4.10;;
45476;SDS011;31958;51.756;-2.556;2022-12-07T08:38:02;12.85;;;4.18;;
45476;SDS011;31958;51.756;-2.556;2022-12-07T08:40:28;16.13;;;4.65;;
45476;SDS011;31958;51.756;-2.556;2022-12-07T08:42:54;11.15;;;3.88;;
45476;SDS011;31958;51.756;-2.556;2022-12-07T08:45:20;12.38;;;5.07;;
45476;SDS011;31958;51.756;-2.556;2022-12-07T08:50:16;12.30;;;5.10;;
45476;SDS011;31958;51.756;-2.556;2022-12-07T08:52:42;11.13;;;5.70;;
45476;SDS011;31958;51.756;-2.556;2022-12-07T08:55:09;14.50;;;5.85;;
45476;SDS011;31958;51.756;-2.556;2022-12-07T08:57:35;24.30;;;10.13;;
45476;SDS011;31958;51.756;-2.556;2022-12-07T09:00:01;12.82;;;7.63;;
45476;SDS011;31958;51.756;-2.556;2022-12-07T09:02:28;15.38;;;8.15;;
45476;SDS011;31958;51.756;-2.556;2022-12-07T09:04:55;16.85;;;9.25;;
45476;SDS011;31958;51.756;-2.556;2022-12-07T09:07:20;16.80;;;5.50;;
45476;SDS011;31958;51.756;-2.556;2022-12-07T09:09:46;12.75;;;5.47;;
45476;SDS011;31958;51.756;-2.556;2022-12-07T09:12:11;20.45;;;4.80;;
45476;SDS011;31958;51.756;-2.556;2022-12-07T09:14:36;10.73;;;4.20;;
45476;SDS011;31958;51.756;-2.556;2022-12-07T09:17:06;12.85;;;4.60;;
45476;SDS011;31958;51.756;-2.556;2022-12-07T09:19:32;12.00;;;3.88;;
45476;SDS011;31958;51.756;-2.556;2022-12-07T09:21:57;13.00;;;4.75;;
45476;SDS011;31958;51.756;-2.556;2022-12-07T09:24:23;9.73;;;4.32;;
45476;SDS011;31958;51.756;-2.556;2022-12-07T09:26:48;9.38;;;3.65;;
45476;SDS011;31958;51.756;-2.556;2022-12-07T09:29:14;7.68;;;3.83;;
45476;SDS011;31958;51.756;-2.556;2022-12-07T09:31:40;12.02;;;3.85;;
45476;SDS011;31958;51.756;-2.556;2022-12-07T09:34:05;44.65;;;21.65;;
45476;SDS011;31958;51.756;-2.556;2022-12-07T09:36:32;8.35;;;3.88;;
45476;SDS011;31958;51.756;-2.556;2022-12-07T09:38:57;14.93;;;6.10;;
45476;SDS011;31958;51.756;-2.556;2022-12-07T09:41:23;13.13;;;4.07;;
45476;SDS011;31958;51.756;-2.556;2022-12-07T09:43:49;15.80;;;4.75;;
45476;SDS011;31958;51.756;-2.556;2022-12-07T09:46:15;14.18;;;6.65;;
45476;SDS011;31958;51.756;-2.556;2022-12-07T09:48:43;14.90;;;6.95;;
45476;SDS011;31958;51.756;-2.556;2022-12-07T09:51:19;15.52;;;5.80;;
45476;SDS011;31958;51.756;-2.556;2022-12-07T09:53:47;10.77;;;5.43;;
45476;SDS011;31958;51.756;-2.556;2022-12-07T09:56:13;12.20;;;5.75;;
45476;SDS011;31958;51.756;-2.556;2022-12-07T09:58:40;11.82;;;5.47;;
45476;SDS011;31958;51.756;-2.556;2022-12-07T10:03:31;12.02;;;5.25;;
45476;SDS011;31958;51.756;-2.556;2022-12-07T10:05:57;8.18;;;4.20;;
45476;SDS011;31958;51.756;-2.556;2022-12-07T10:08:22;9.82;;;3.80;;
45476;SDS011;31958;51.756;-2.556;2022-12-07T10:10:53;8.02;;;3.03;;
45476;SDS011;31958;51.756;-2.556;2022-12-07T10:13:42;9.43;;;3.58;;
45476;SDS011;31958;51.756;-2.556;2022-12-07T10:16:55;8.10;;;3.20;;
45476;SDS011;31958;51.756;-2.556;2022-12-07T10:19:19;6.03;;;2.95;;
45476;SDS011;31958;51.756;-2.556;2022-12-07T10:22:01;14.95;;;4.15;;
45476;SDS011;31958;51.756;-2.556;2022-12-07T10:24:34;14.45;;;6.10;;
45476;SDS011;31958;51.756;-2.556;2022-12-07T10:27:02;18.75;;;6.93;;
45476;SDS011;31958;51.756;-2.556;2022-12-07T10:29:29;24.95;;;7.45;;
45476;SDS011;31958;51.756;-2.556;2022-12-07T10:32:00;13.10;;;5.00;;
45476;SDS011;31958;51.756;-2.556;2022-12-07T10:34:34;13.43;;;4.30;;
45476;SDS011;31958;51.756;-2.556;2022-12-07T10:39:44;8.30;;;3.65;;
45476;SDS011;31958;51.756;-2.556;2022-12-07T11:03:33;17.10;;;7.22;;
45476;SDS011;31958;51.756;-2.556;2022-12-07T11:08:57;16.65;;;6.07;;
45476;SDS011;31958;51.756;-2.556;2022-12-07T11:22:16;9.02;;;4.20;;
45476;SDS011;31958;51.756;-2.556;2022-12-07T11:25:22;12.20;;;4.10;;
45476;SDS011;31958;51.756;-2.556;2022-12-07T11:36:17;6.53;;;2.80;;
45476;SDS011;31958;51.756;-2.556;2022-12-07T11:39:04;14.10;;;2.72;;
45476;SDS011;31958;51.756;-2.556;2022-12-07T11:41:35;4.75;;;2.63;;
45476;SDS011;31958;51.756;-2.556;2022-12-07T11:44:15;9.25;;;2.90;;
45476;SDS011;31958;51.756;-2.556;2022-12-07T11:47:05;10.65;;;3.00;;
45476;SDS011;31958;51.756;-2.556;2022-12-07T11:54:57;9.60;;;2.40;;
45476;SDS011;31958;51.756;-2.556;2022-12-07T11:57:38;8.38;;;2.33;;
45476;SDS011;31958;51.756;-2.556;2022-12-07T12:00:13;10.35;;;2.72;;
45476;SDS011;31958;51.756;-2.556;2022-12-07T12:02:44;5.45;;;2.60;;
45476;SDS011;31958;51.756;-2.556;2022-12-07T12:05:24;9.70;;;2.65;;
45476;SDS011;31958;51.756;-2.556;2022-12-07T12:11:48;11.45;;;3.03;;
45476;SDS011;31958;51.756;-2.556;2022-12-07T12:14:15;5.80;;;2.00;;
45476;SDS011;31958;51.756;-2.556;2022-12-07T12:19:45;8.38;;;2.38;;
45476;SDS011;31958;51.756;-2.556;2022-12-07T12:22:21;5.25;;;1.98;;
45476;SDS011;31958;51.756;-2.556;2022-12-07T12:24:52;7.88;;;2.15;;
45476;SDS011;31958;51.756;-2.556;2022-12-07T12:27:21;9.82;;;1.92;;
45476;SDS011;31958;51.756;-2.556;2022-12-07T12:29:57;6.68;;;1.70;;
45476;SDS011;31958;51.756;-2.556;2022-12-07T12:33:00;4.82;;;1.80;;
45476;SDS011;31958;51.756;-2.556;2022-12-07T12:37:48;9.43;;;1.77;;
45476;SDS011;31958;51.756;-2.556;2022-12-07T12:42:49;9.18;;;1.60;;
45476;SDS011;31958;51.756;-2.556;2022-12-07T12:45:25;5.15;;;1.80;;
45476;SDS011;31958;51.756;-2.556;2022-12-07T12:48:01;6.22;;;1.77;;
45476;SDS011;31958;51.756;-2.556;2022-12-07T12:50:35;4.32;;;1.55;;
45476;SDS011;31958;51.756;-2.556;2022-12-07T12:53:03;10.70;;;1.60;;
45476;SDS011;31958;51.756;-2.556;2022-12-07T12:55:46;4.57;;;1.80;;
45476;SDS011;31958;51.756;-2.556;2022-12-07T12:58:36;5.32;;;2.17;;
45476;SDS011;31958;51.756;-2.556;2022-12-07T13:03:54;3.63;;;1.52;;
45476;SDS011;31958;51.756;-2.556;2022-12-07T13:08:49;2.72;;;1.52;;
45476;SDS011;31958;51.756;-2.556;2022-12-07T13:11:38;2.70;;;1.30;;
45476;SDS011;31958;51.756;-2.556;2022-12-07T13:20:00;7.30;;;1.83;;
45476;SDS011;31958;51.756;-2.556;2022-12-07T13:27:43;5.80;;;1.52;;
45476;SDS011;31958;51.756;-2.556;2022-12-07T13:30:19;6.45;;;1.50;;
45476;SDS011;31958;51.756;-2.556;2022-12-07T13:32:54;6.88;;;1.95;;
45476;SDS011;31958;51.756;-2.556;2022-12-07T13:35:34;5.63;;;1.80;;
45476;SDS011;31958;51.756;-2.556;2022-12-07T13:38:04;4.60;;;1.73;;
45476;SDS011;31958;51.756;-2.556;2022-12-07T13:40:38;5.45;;;1.80;;
45476;SDS011;31958;51.756;-2.556;2022-12-07T13:43:04;9.85;;;1.70;;
45476;SDS011;31958;51.756;-2.556;2022-12-07T13:45:31;10.27;;;2.15;;
45476;SDS011;31958;51.756;-2.556;2022-12-07T13:48:14;6.03;;;1.67;;
45476;SDS011;31958;51.756;-2.556;2022-12-07T13:50:48;7.95;;;1.65;;
45476;SDS011;31958;51.756;-2.556;2022-12-07T13:53:17;7.50;;;1.80;;
45476;SDS011;31958;51.756;-2.556;2022-12-07T13:55:46;5.30;;;1.50;;
45476;SDS011;31958;51.756;-2.556;2022-12-07T13:58:12;4.05;;;1.65;;
45476;SDS011;31958;51.756;-2.556;2022-12-07T14:00:37;7.53;;;1.60;;
45476;SDS011;31958;51.756;-2.556;2022-12-07T14:05:37;5.15;;;1.60;;
45476;SDS011;31958;51.756;-2.556;2022-12-07T14:10:36;8.05;;;1.92;;
45476;SDS011;31958;51.756;-2.556;2022-12-07T14:15:53;8.18;;;1.83;;
45476;SDS011;31958;51.756;-2.556;2022-12-07T14:21:03;5.38;;;1.73;;
45476;SDS011;31958;51.756;-2.556;2022-12-07T14:23:36;7.90;;;1.67;;
45476;SDS011;31958;51.756;-2.556;2022-12-07T14:26:15;4.22;;;1.35;;
45476;SDS011;31958;51.756;-2.556;2022-12-07T14:28:43;5.47;;;1.55;;
45476;SDS011;31958;51.756;-2.556;2022-12-07T14:31:18;4.40;;;1.80;;
45476;SDS011;31958;51.756;-2.556;2022-12-07T14:33:47;6.78;;;1.60;;
45476;SDS011;31958;51.756;-2.556;2022-12-07T14:36:12;4.25;;;1.52;;
45476;SDS011;31958;51.756;-2.556;2022-12-07T14:38:39;13.15;;;1.45;;
45476;SDS011;31958;51.756;-2.556;2022-12-07T14:41:06;3.38;;;1.20;;
45476;SDS011;31958;51.756;-2.556;2022-12-07T14:43:56;7.47;;;1.55;;
45476;SDS011;31958;51.756;-2.556;2022-12-07T14:46:21;10.82;;;1.75;;
45476;SDS011;31958;51.756;-2.556;2022-12-07T14:48:47;8.98;;;1.60;;
45476;SDS011;31958;51.756;-2.556;2022-12-07T14:51:13;2.10;;;0.98;;
45476;SDS011;31958;51.756;-2.556;2022-12-07T14:53:42;3.30;;;1.10;;
45476;SDS011;31958;51.756;-2.556;2022-12-07T14:56:13;7.35;;;1.23;;
45476;SDS011;31958;51.756;-2.556;2022-12-07T14:58:39;11.55;;;1.70;;
45476;SDS011;31958;51.756;-2.556;2022-12-07T15:01:05;14.98;;;2.05;;
45476;SDS011;31958;51.756;-2.556;2022-12-07T15:03:30;7.75;;;1.67;;
45476;SDS011;31958;51.756;-2.556;2022-12-07T15:05:56;5.85;;;1.65;;
45476;SDS011;31958;51.756;-2.556;2022-12-07T15:08:21;3.67;;;1.30;;
45476;SDS011;31958;51.756;-2.556;2022-12-07T15:10:46;5.82;;;1.70;;
45476;SDS011;31958;51.756;-2.556;2022-12-07T15:13:12;3.58;;;1.13;;
45476;SDS011;31958;51.756;-2.556;2022-12-07T15:15:56;3.08;;;1.30;;
45476;SDS011;31958;51.756;-2.556;2022-12-07T15:18:22;3.42;;;1.45;;
45476;SDS011;31958;51.756;-2.556;2022-12-07T15:20:49;7.07;;;1.48;;
45476;SDS011;31958;51.756;-2.556;2022-12-07T15:23:14;4.78;;;1.33;;
45476;SDS011;31958;51.756;-2.556;2022-12-07T15:25:40;9.93;;;1.45;;
45476;SDS011;31958;51.756;-2.556;2022-12-07T15:28:06;4.32;;;1.20;;
45476;SDS011;31958;51.756;-2.556;2022-12-07T15:30:32;5.82;;;1.48;;
45476;SDS011;31958;51.756;-2.556;2022-12-07T15:32:57;5.15;;;1.38;;
45476;SDS011;31958;51.756;-2.556;2022-12-07T15:35:22;1.98;;;1.30;;
45476;SDS011;31958;51.756;-2.556;2022-12-07T15:37:48;4.72;;;1.50;;
45476;SDS011;31958;51.756;-2.556;2022-12-07T15:40:13;3.92;;;1.88;;
45476;SDS011;31958;51.756;-2.556;2022-12-07T15:42:39;4.82;;;1.60;;
45476;SDS011;31958;51.756;-2.556;2022-12-07T15:45:05;7.13;;;2.15;;
45476;SDS011;31958;51.756;-2.556;2022-12-07T15:47:36;5.28;;;1.30;;
45476;SDS011;31958;51.756;-2.556;2022-12-07T15:50:03;5.32;;;1.80;;
45476;SDS011;31958;51.756;-2.556;2022-12-07T15:52:30;5.53;;;1.20;;
45476;SDS011;31958;51.756;-2.556;2022-12-07T15:54:55;3.85;;;1.40;;
45476;SDS011;31958;51.756;-2.556;2022-12-07T15:57:21;12.52;;;2.92;;
45476;SDS011;31958;51.756;-2.556;2022-12-07T15:59:46;7.70;;;1.60;;
45476;SDS011;31958;51.756;-2.556;2022-12-07T16:02:12;8.50;;;1.98;;
45476;SDS011;31958;51.756;-2.556;2022-12-07T16:04:37;3.75;;;1.13;;
45476;SDS011;31958;51.756;-2.556;2022-12-07T16:07:02;4.05;;;1.10;;
45476;SDS011;31958;51.756;-2.556;2022-12-07T16:09:28;2.22;;;0.90;;
45476;SDS011;31958;51.756;-2.556;2022-12-07T16:11:53;4.07;;;1.15;;
45476;SDS011;31958;51.756;-2.556;2022-12-07T16:14:19;2.22;;;1.13;;
45476;SDS011;31958;51.756;-2.556;2022-12-07T16:16:45;6.53;;;1.50;;
45476;SDS011;31958;51.756;-2.556;2022-12-07T16:19:11;7.40;;;1.10;;
45476;SDS011;31958;51.756;-2.556;2022-12-07T16:21:37;4.55;;;1.70;;
45476;SDS011;31958;51.756;-2.556;2022-12-07T16:24:02;5.43;;;1.67;;
45476;SDS011;31958;51.756;-2.556;2022-12-07T16:26:30;4.57;;;1.20;;
45476;SDS011;31958;51.756;-2.556;2022-12-07T16:28:55;9.25;;;1.60;;
45476;SDS011;31958;51.756;-2.556;2022-12-07T16:31:22;8.05;;;1.85;;
45476;SDS011;31958;51.756;-2.556;2022-12-07T16:33:49;10.50;;;1.55;;
45476;SDS011;31958;51.756;-2.556;2022-12-07T16:36:15;3.97;;;1.73;;
45476;SDS011;31958;51.756;-2.556;2022-12-07T16:38:41;6.03;;;1.48;;
45476;SDS011;31958;51.756;-2.556;2022-12-07T16:41:07;3.50;;;1.50;;
45476;SDS011;31958;51.756;-2.556;2022-12-07T16:43:33;7.18;;;1.80;;
45476;SDS011;31958;51.756;-2.556;2022-12-07T16:45:58;6.88;;;1.35;;
45476;SDS011;31958;51.756;-2.556;2022-12-07T16:48:24;3.28;;;1.30;;